AirNav   TITAN Aviation Fuels
 
 952 users online  

3G6 Tri-City Airport
Sebring, Ohio, USA

GOING TO SEBRING?


FAA INFORMATION EFFECTIVE 15 JULY 2021

Location

FAA Identifier: 3G6
Lat/Long: 40-54-21.6000N 081-00-00.1000W
40-54.360000N 081-00.001667W
40.9060000,-81.0000278
(estimated)
Elevation: 1187.5 ft. / 362.0 m (surveyed)
Variation: 09W (2025)
From city: 1 mile SE of SEBRING, OH
Time zone: UTC -4 (UTC -5 during Standard Time)
Zip code: 44609

Airport Operations

Airport use: Open to the public
Activation date: 07/1969
Control tower: no
ARTCC: CLEVELAND CENTER
FSS: CLEVELAND FLIGHT SERVICE STATION
NOTAMs facility: CLE (NOTAM-D service available)
Attendance: UNATNDD
Wind indicator: lighted
Segmented circle: no
Lights: ACTVT NSTD LIRL RWY 18/36 - CTAF.

Airport Communications

CTAF: 122.9
CLEVELAND APPROACH: 125.5
CLEVELAND DEPARTURE: 125.5
  • APCH/DEP SVC PRVDD BY CLEVELAND APCH (CLE) 0600-0000. APCH/DEP SVC PRVDD BY CLEVELAND ARTCC (ZOB) ON FREQS 120.6/298.95 (CHARDON RCAG) 0000-0600.

Nearby radio navigation aids

VOR radial/distance  VOR name  Freq  Var
ACOr147/15.2AKRON VOR/DME114.4004W
BSVr067/22.0BRIGGS VOR/DME112.4004W
YNGr215/29.4YOUNGSTOWN VORTAC109.0005W
EWCr286/36.1ELLWOOD CITY VOR/DME115.8008W
CXRr174/37.4CHARDON VOR/DME112.7005W

 
NDB name  Hdg/Dist  Freq  Var  ID
CASTLE264/27.427209WUCP ..- -.-. .--.

Airport Services

Fuel available: 100LL
100LL:AVBL ON REQ CALL AMGR.
Parking: tiedowns
Bottled oxygen: NONE
Bulk oxygen: NONE

Runway Information

Runway 18/36

Dimensions: 2768 x 45 ft. / 844 x 14 m
Surface: asphalt, in poor condition
Runway edge lights: non-standard
NSTD LIRL DUE TO LAYOUT, COLORS, & NON-FRANGIBLE FIXTURES.
Runway edge markings: NSTD BASIC DUE TO SML NRS & CNTRLN.
RUNWAY 18  RUNWAY 36
Latitude: 40-54.585583N40-54.134550N
Longitude: 081-00.044550W080-59.957617W
Elevation: 1184.7 ft.1177.9 ft.
Traffic pattern: leftleft
Runway heading: 181 magnetic, 172 true001 magnetic, 352 true
Markings: NSTDNSTD
Touchdown point: yes, no lightsyes, no lights
Obstructions: 30 ft. trees, 900 ft. from runway, 95 ft. left of centerline, 23:1 slope to clear
15 FT TREES, 0 FT DIST, 70 FT R.
18 ft. pole, 315 ft. from runway, 130 ft. both sides of centerline, 6:1 slope to clear
40 FT TREE, 175 FT DIST, 86 FT R.

Airport Ownership and Management from official FAA records

Ownership: Privately-owned
Owner: 3G6 LLC
18330 STATE ROUTE 62
BELOIT, OH 44609-9520
Phone 330-938-1216
Manager: WAYNE HARTER JR
18330 STATE ROUTE 62
BELOIT, OH 44609-9520
Phone 330-428-1269

Airport Operational Statistics

Aircraft based on the field: 20
Single engine airplanes: 20
    
Aircraft operations: avg 21/day *
71% local general aviation
29% transient general aviation
<1% military
<1% air taxi
* for 12-month period ending 22 July 2020

Additional Remarks

FOR CD CTC CLEVELAND APCH AT 216-352-2323, WHEN APCH CLSD CTC CLEVELAND ARTCC AT 440-774-0223/0490.
DEER, BIRDS, & WILDLIFE ON & INVOF ARPT.

Instrument Procedures

NOTE: All procedures below are presented as PDF files. If you need a reader for these files, you should download the free Adobe Reader.

NOT FOR NAVIGATION. Please procure official charts for flight.
FAA instrument procedures published for use from 15 July 2021 at 0901Z to 12 August 2021 at 0900z.

 
IAPs - Instrument Approach Procedures
RNAV (GPS) RWY 18 **NEW**   download (166KB)
VOR RWY 18 **NEW**   download (182KB)
NOTE: Special Take-Off Minimums/Departure Procedures apply **CHANGED**   download (457KB)

Other nearby airports with instrument procedures:

38D - Salem Airpark Inc (7 nm E)
4G4 - Youngstown Elser Metro Airport (15 nm E)
KCAK - Akron-Canton Regional Airport (20 nm W)
KTSO - Carroll County-Tolson Airport (21 nm S)
02G - Columbiana County Airport (21 nm SE)
 
Loc | Ops | Rwys | IFR | FBO | Links
Com | Nav | Svcs | Stats | Notes
Area around 3G6 (Tri-City Airport)
 
Road maps at: MapQuest Bing Google
 
Aerial photo
WARNING: Photo may not be current or correct
Aerial photo of 3G6 (Tri-City Airport)
Photo taken 03-Jul-2005
from approx. 5000' AGL

Do you have a better or more recent aerial photo of Tri-City Airport that you would like to share? If so, please send us your photo.

 
Sectional chart

 
Airport distance calculator
Flying to Tri-City Airport? Find the distance to fly.

From to 3G6

Sunrise and sunset
Times for 24-Jul-2021
 Local
(UTC-4)
 Zulu
(UTC)
Morning civil twilight05:4209:42
Sunrise06:1410:14
Sunset20:4700:47
Evening civil twilight21:1901:19

Current date and time
Zulu (UTC)  24-Jul-2021 12:39:21
Local (UTC-4)  24-Jul-2021 08:39:21
 
METAR
KCAK 
20nm W 
241151Z 00000KT 10SM -RA OVC050 19/17 A3008 RMK AO2 RAE1058B41 SLP181 P0000 60016 70016 T01890167 10211 20178 56005
KPOV 
22nm NW 
241215Z AUTO 00000KT 5SM SCT031 BKN037 BKN048 18/16 A3008 RMK AO2 T01750160 PWINO
KAKR 
22nm W 
241208Z AUTO 00000KT 2SM RA FEW040 BKN055 OVC075 20/17 A3009 RMK AO2 P0002 T02000172
KYNG 
26nm NE 
241151Z 00000KT 10SM SCT060 OVC85 19/17 A3010 RMK AO2 RAB1053E03 SLP185 P0000 60000 T01940172 10194 20183 53000
KUCP 
28nm E 
241156Z AUTO 00000KT 10SM FEW050 OVC100 19/17 A3009 RMK AO2 SLP199 60000 T01940167 10194 20178 56002
KBVI 
28nm E 
241215Z AUTO 17003KT 10SM SCT100 20/17 A3009 RMK AO2 T01950167
KPHD 
32nm SW 
241153Z AUTO 00000KT 10SM FEW060 BKN085 18/17 A3009 RMK AO2 SLP184 T01830172 10183 20167 50001
KPJC 
39nm E 
241215Z AUTO 00000KT 7SM RA OVC100 19/18 A3008 RMK AO2
KBJJ 
40nm W 
241156Z AUTO 00000KT 10SM BKN041 OVC055 18/16 A3009 RMK AO2 RAB47E56 SLP184 P0000 60000 T01780161 10183 20167 51003
TAF
KCAK 
20nm W 
241135Z 2412/2512 VRB04KT 6SM -SHRA SCT040 OVC090 TEMPO 2412/2413 4SM -SHRA BKN040 FM241300 21009KT P6SM BKN050 FM250700 23006KT P6SM VCSH BKN045 FM251100 24006KT P6SM BKN020
NOTAMs
Click for the latest NOTAMs
NOTAMs are issued by the DoD/FAA and will open in a separate window not controlled by AirNav.

 

 
 

FBO, Fuel Providers, and Aircraft Ground Support

  
 Business Name 
 
 Contact 
 
 Services / Description 
 
Fuel Prices
 
Comments
  
Tri-City Airport 330-938-1216
no information available

If you are affiliated with Tri-City Airport and would like to show here your services, contact info, web link, logo, and more, click here
100LL
PS $4.99 
 Updated 20-Jul-2021
 
   write
PS=Pump service
Update Fuel Prices
 

Would you like to see your business listed on this page?

 If your business provides an interesting product or service to pilots, flight crews, aircraft, or users of the Tri-City Airport, you should consider listing it here.  To start the listing process, click on the button below
 
Add a business
 

Other Pages about Tri-City Airport

Update a link
 
Copyright © AirNav, LLC. All rights reserved. Privacy Policy  Contact